^^
Datos históricos de la estación: Murcia-Puente Tocinos
Diario Informe para Mayo 13, 2019 Unidades:  Métrico    Ingés   Ambas
Diario Semanal Mensual Anual
  Máxima: Mínima: Promedio:
Temperatura: 28.9 °C 24.6 °C 26.1 °C
Punto de rocio: 22.2 °C 16.4 °C 19.9 °C
Humedad: 83.1% 47.8% 70%
Velocidad viento: 22.5km/h 0km/h 10.6km/h
Racha viento: 38.9km/h - -
Viento- - ENE
Presión: 1017.5 hPa 1014.4 hPa -
Precipitación: 0.0 mm    
 
 
Tabla de datos para Mayo 13, 2019
Hora Temperatura Punto de rocio Presión Viento Velocidad viento Racha viento Humedad Intensidad lluvia(por hora) Nubes
00:04 26.1 °C 22.1 °C 1015.5 hPa NE 9.5 km/h 20.4 km/h 79% 0.0 mm
00:09 26 °C 22.1 °C 1015.5 hPa ENE 9.5 km/h 20.9 km/h 79% 0.0 mm
00:14 26.1 °C 22.2 °C 1015.5 hPa NE 9.5 km/h 16.1 km/h 79% 0.0 mm
00:19 26.1 °C 22.1 °C 1015.5 hPa ENE 8.7 km/h 21.7 km/h 78.6% 0.0 mm
00:24 26.1 °C 21.9 °C 1015.5 hPa ENE 6.5 km/h 22.5 km/h 78% 0.0 mm
00:29 25.9 °C 22 °C 1015.5 hPa NE 10 km/h 14.8 km/h 79% 0.0 mm
00:34 25.9 °C 22 °C 1015.6 hPa NE 10 km/h 16.1 km/h 79% 0.0 mm
00:39 25.9 °C 22 °C 1015.6 hPa NE 9.9 km/h 22.2 km/h 79% 0.0 mm
00:44 25.9 °C 22 °C 1015.6 hPa NE 9.5 km/h 22.5 km/h 79% 0.0 mm
00:49 25.9 °C 22 °C 1015.7 hPa NE 9 km/h 14.5 km/h 79% 0.0 mm
00:54 25.8 °C 22 °C 1015.7 hPa NE 7.6 km/h 13 km/h 79% 0.0 mm
00:59 25.8 °C 21.9 °C 1015.7 hPa NE 7.6 km/h 13 km/h 79% 0.0 mm
01:04 25.8 °C 22 °C 1015.8 hPa NE 7.6 km/h 13 km/h 79.6% 0.0 mm
01:09 25.8 °C 22.1 °C 1015.8 hPa NE 7.4 km/h 16.7 km/h 80% 0.0 mm
01:14 25.7 °C 22 °C 1015.8 hPa NE 6.9 km/h 17.2 km/h 80.2% 0.0 mm
01:19 25.7 °C 22.2 °C 1015.8 hPa NE 7.1 km/h 17.7 km/h 81% 0.0 mm
01:24 25.7 °C 22.2 °C 1015.8 hPa ENE 7.6 km/h 11.3 km/h 81% 0.0 mm
01:29 25.6 °C 22.1 °C 1015.8 hPa NE 7.4 km/h 15.6 km/h 81% 0.0 mm
01:34 25.6 °C 22.1 °C 1015.8 hPa NE 6.9 km/h 16.1 km/h 81% 0.0 mm
01:39 25.6 °C 22.1 °C 1015.8 hPa NE 6.9 km/h 11.3 km/h 81% 0.0 mm
01:44 25.5 °C 22 °C 1015.8 hPa NE 6.9 km/h 11.9 km/h 81% 0.0 mm
01:49 25.4 °C 21.9 °C 1015.8 hPa NE 7.1 km/h 15.6 km/h 81% 0.0 mm
01:54 25.4 °C 21.9 °C 1015.8 hPa NE 7.6 km/h 16.1 km/h 81% 0.0 mm
01:59 25.4 °C 21.9 °C 1015.8 hPa NE 7.4 km/h 13 km/h 81% 0.0 mm
02:04 25.4 °C 21.9 °C 1015.8 hPa NE 6.9 km/h 12.9 km/h 81% 0.0 mm
02:09 25.3 °C 21.7 °C 1015.8 hPa NE 6.9 km/h 11.9 km/h 80.6% 0.0 mm
02:14 25.3 °C 21.6 °C 1015.8 hPa NE 6.9 km/h 13 km/h 80% 0.0 mm
02:19 25.2 °C 21.5 °C 1015.8 hPa NNE 7.1 km/h 12.9 km/h 80% 0.0 mm
02:24 25.2 °C 21.5 °C 1015.6 hPa NNE 7.6 km/h 11.3 km/h 80% 0.0 mm
02:29 25.2 °C 21.5 °C 1015.6 hPa NNE 7.3 km/h 11.1 km/h 80% 0.0 mm
02:34 25.1 °C 21.4 °C 1015.6 hPa NNE 6.5 km/h 11.9 km/h 80% 0.0 mm
02:39 25.1 °C 21.4 °C 1015.5 hPa NE 6.7 km/h 13 km/h 80% 0.0 mm
02:44 25.1 °C 21.4 °C 1015.5 hPa NNE 7.6 km/h 13 km/h 80% 0.0 mm
02:49 25 °C 21.3 °C 1015.5 hPa NE 7.3 km/h 12.9 km/h 80% 0.0 mm
02:54 24.9 °C 21.2 °C 1015.5 hPa NE 6.5 km/h 10.3 km/h 80% 0.0 mm
02:59 24.9 °C 21.2 °C 1015.5 hPa NE 6.6 km/h 11.3 km/h 80% 0.0 mm
03:04 24.9 °C 21.2 °C 1015.5 hPa NE 6.9 km/h 11.9 km/h 80% 0.0 mm
03:09 24.9 °C 21.2 °C 1015.2 hPa NE 7.1 km/h 11.9 km/h 80% 0.0 mm
03:14 24.9 °C 21.2 °C 1015.2 hPa NE 7.6 km/h 11.3 km/h 80% 0.0 mm
03:19 24.9 °C 21.2 °C 1015.2 hPa NE 7.3 km/h 11.3 km/h 80% 0.0 mm
03:24 24.9 °C 21.2 °C 1015.1 hPa NE 6.5 km/h 11.3 km/h 80% 0.0 mm
03:29 24.8 °C 21.1 °C 1015.1 hPa NE 6.6 km/h 13 km/h 80% 0.0 mm
03:34 24.8 °C 21.2 °C 1015.1 hPa NE 6.9 km/h 12.9 km/h 80.3% 0.0 mm
03:39 24.8 °C 21.2 °C 1014.7 hPa NNE 6.8 km/h 11.1 km/h 80.4% 0.0 mm
03:44 24.8 °C 21.3 °C 1014.7 hPa NNE 6.5 km/h 11.3 km/h 81% 0.0 mm
03:49 24.8 °C 21.3 °C 1014.7 hPa NNE 5.6 km/h 8 km/h 80.8% 0.0 mm
03:54 24.8 °C 21.1 °C 1014.7 hPa North 3.2 km/h 5.6 km/h 80% 0.0 mm
03:59 24.8 °C 21.1 °C 1014.7 hPa NO 3.1 km/h 7.4 km/h 80% 0.0 mm
04:04 24.8 °C 21.1 °C 1014.7 hPa NNO 2.9 km/h 8 km/h 80% 0.0 mm
04:09 24.8 °C 21 °C 1014.6 hPa NO 3.3 km/h 8 km/h 79.5% 0.0 mm
04:14 24.8 °C 20.9 °C 1014.6 hPa NO 4.7 km/h 8 km/h 79% 0.0 mm
04:19 24.7 °C 20.9 °C 1014.6 hPa NO 4.5 km/h 8 km/h 79.6% 0.0 mm
04:24 24.7 °C 21 °C 1014.6 hPa NNO 3.9 km/h 8 km/h 80% 0.0 mm
04:29 24.7 °C 21 °C 1014.6 hPa NO 3.9 km/h 8.4 km/h 80% 0.0 mm
04:34 24.7 °C 21 °C 1014.6 hPa NO 3.9 km/h 8 km/h 80% 0.0 mm
04:39 24.7 °C 21 °C 1014.4 hPa NO 4.1 km/h 8 km/h 80% 0.0 mm
04:44 24.7 °C 21 °C 1014.4 hPa NNO 4.7 km/h 8 km/h 80% 0.0 mm
04:49 24.7 °C 21 °C 1014.4 hPa NO 4.4 km/h 7.4 km/h 80% 0.0 mm
04:54 24.7 °C 20.8 °C 1014.4 hPa NO 3.9 km/h 8 km/h 79.1% 0.0 mm
04:59 24.7 °C 20.9 °C 1014.4 hPa NO 3.7 km/h 8 km/h 79.6% 0.0 mm
05:04 24.7 °C 21 °C 1014.4 hPa NO 3.2 km/h 5.6 km/h 80% 0.0 mm
05:09 24.7 °C 20.9 °C 1014.4 hPa NO 2.4 km/h 4.8 km/h 79.2% 0.0 mm
05:14 24.7 °C 20.8 °C 1014.4 hPa Calm   7.4 km/h 79% 0.0 mm
05:19 24.7 °C 20.8 °C 1014.5 hPa NO 0.6 km/h 8 km/h 79% 0.0 mm
05:24 24.7 °C 20.8 °C 1014.5 hPa NO 2.2 km/h 4.8 km/h 79% 0.0 mm
05:29 24.7 °C 20.8 °C 1014.5 hPa NO 2.2 km/h 5.8 km/h 79% 0.0 mm
05:34 24.7 °C 20.8 °C 1014.5 hPa NO 2.2 km/h 6.4 km/h 79% 0.0 mm
05:39 24.7 °C 20.8 °C 1014.5 hPa NO 2.2 km/h 4.8 km/h 79% 0.0 mm
05:44 24.8 °C 20.9 °C 1014.5 hPa NO 2.2 km/h 3.2 km/h 79% 0.0 mm
05:49 24.8 °C 20.9 °C 1014.5 hPa NO 1.7 km/h 5.8 km/h 79% 0.0 mm
05:54 24.8 °C 20.9 °C 1014.5 hPa Calm   6.4 km/h 79% 0.0 mm
05:59 24.8 °C 20.9 °C 1014.5 hPa Calm     79% 0.0 mm
06:04 24.8 °C 20.9 °C 1014.6 hPa Calm     79% 0.0 mm
06:09 24.8 °C 20.9 °C 1014.6 hPa Calm     79% 0.0 mm
06:14 24.8 °C 20.9 °C 1014.6 hPa Calm     79% 0.0 mm
06:19 24.8 °C 20.9 °C 1014.6 hPa Calm   5.6 km/h 79% 0.0 mm
06:24 24.8 °C 20.9 °C 1014.5 hPa Calm   7.4 km/h 79% 0.0 mm
06:29 24.8 °C 20.9 °C 1014.5 hPa NO 0.6 km/h 8 km/h 79% 0.0 mm
06:34 24.8 °C 20.9 °C 1014.6 hPa NO 2.2 km/h 5.8 km/h 79% 0.0 mm
06:39 24.8 °C 20.9 °C 1014.6 hPa NO 2.5 km/h 6.4 km/h 79% 0.0 mm
06:44 24.8 °C 20.9 °C 1014.6 hPa NO 3.2 km/h 4.8 km/h 79% 0.0 mm
06:49 24.7 °C 20.8 °C 1014.6 hPa NO 2.4 km/h 6.4 km/h 79% 0.0 mm
06:54 24.7 °C 20.8 °C 1014.6 hPa Calm   8 km/h 79% 0.0 mm
06:59 24.7 °C 20.9 °C 1014.6 hPa NNE 1 km/h 8 km/h 79.4% 0.0 mm
07:04 24.6 °C 20.7 °C 1015.1 hPa NE 3.2 km/h 9.3 km/h 79% 0.0 mm
07:09 24.6 °C 19.5 °C 1015.1 hPa NE 4 km/h 17.2 km/h 73.2% 0.0 mm
07:14 24.8 °C 19.2 °C 1015.1 hPa NNE 6.5 km/h 17.7 km/h 71.3% 0.0 mm
07:19 24.9 °C 19.1 °C 1015.1 hPa NNE 7.4 km/h 22.2 km/h 70% 0.0 mm
07:24 24.9 °C 19.1 °C 1015.1 hPa NNE 10 km/h 22.5 km/h 70% 0.0 mm
07:29 24.9 °C 19.1 °C 1015.1 hPa NE 10.1 km/h 19.3 km/h 70% 0.0 mm
07:34 24.9 °C 19.2 °C 1015.3 hPa NE 10.3 km/h 17.7 km/h 70.8% 0.0 mm
07:39 24.8 °C 19.2 °C 1015.3 hPa NE 10.1 km/h 16.1 km/h 71% 0.0 mm
07:44 24.8 °C 19.1 °C 1015.3 hPa NE 9.5 km/h 16.7 km/h 71% 0.0 mm
07:49 24.7 °C 19.3 °C 1015.4 hPa NE 9.6 km/h 16.7 km/h 72% 0.0 mm
07:54 24.7 °C 19.3 °C 1015.4 hPa NE 10 km/h 16.1 km/h 72% 0.0 mm
07:59 24.7 °C 19.3 °C 1015.4 hPa NE 9.6 km/h 17.2 km/h 72% 0.0 mm
08:04 24.7 °C 19.6 °C 1015.6 hPa NE 8.7 km/h 17.7 km/h 73% 0.0 mm
08:09 24.7 °C 19.6 °C 1015.6 hPa NE 8.9 km/h 19 km/h 73% 0.0 mm
08:14 24.7 °C 19.6 °C 1015.6 hPa NE 9.5 km/h 19.3 km/h 73% 0.0 mm
08:19 24.7 °C 19.7 °C 1015.6 hPa NE 9.7 km/h 19.3 km/h 73.8% 0.0 mm
08:24 24.7 °C 19.7 °C 1015.6 hPa NNE 10.3 km/h 19.3 km/h 74% 0.0 mm
08:29 24.6 °C 19.7 °C 1015.6 hPa NNE 10.1 km/h 16.1 km/h 74% 0.0 mm
08:34 24.6 °C 19.7 °C 1015.8 hPa NNE 9.5 km/h 14.8 km/h 74% 0.0 mm
08:39 24.6 °C 19.7 °C 1015.8 hPa NNE 9.5 km/h 18 km/h 74% 0.0 mm
08:44 24.6 °C 19.7 °C 1015.8 hPa NNE 9.5 km/h 17.7 km/h 74% 0.0 mm
08:49 24.7 °C 19.5 °C 1015.8 hPa NNE 9.3 km/h 14.8 km/h 73% 0.0 mm
08:54 24.8 °C 19.4 °C 1015.8 hPa NE 8.7 km/h 16.7 km/h 72.3% 0.0 mm
08:59 24.9 °C 19.5 °C 1015.8 hPa NE 9.1 km/h 17.2 km/h 72% 0.0 mm
09:04 24.9 °C 19.4 °C 1016.0 hPa NE 10 km/h 17.7 km/h 71.5% 0.0 mm
09:09 25 °C 19.4 °C 1016.0 hPa NE 9.6 km/h 16.1 km/h 71% 0.0 mm
09:14 25.2 °C 19.4 °C 1016.0 hPa NE 8.7 km/h 20.4 km/h 70.6% 0.0 mm
09:19 25.3 °C 19.4 °C 1016.1 hPa NE 8.9 km/h 20.9 km/h 70% 0.0 mm
09:24 25.3 °C 19.5 °C 1016.1 hPa NE 9.5 km/h 17.2 km/h 70% 0.0 mm
09:29 25.5 °C 19.5 °C 1016.1 hPa NNE 9.6 km/h 17.7 km/h 69.3% 0.0 mm
09:34 25.6 °C 19.5 °C 1016.1 hPa NE 10 km/h 22.2 km/h 69% 0.0 mm
09:39 25.7 °C 19.6 °C 1016.1 hPa NE 10.5 km/h 22.5 km/h 69% 0.0 mm
09:44 25.8 °C 19.6 °C 1016.1 hPa NE 11.9 km/h 22.5 km/h 68.9% 0.0 mm
09:49 25.8 °C 19.5 °C 1016.1 hPa NE 12.4 km/h 27.8 km/h 68% 0.0 mm
09:54 25.9 °C 19.6 °C 1016.1 hPa NE 14 km/h 27.4 km/h 68% 0.0 mm
09:59 26.1 °C 19.7 °C 1016.1 hPa NE 14.6 km/h 25.9 km/h 68% 0.0 mm
10:04 26.1 °C 19.7 °C 1016.1 hPa NE 16.1 km/h 25.7 km/h 68% 0.0 mm
10:09 26.1 °C 19.6 °C 1016.1 hPa NE 15.7 km/h 24.1 km/h 67.6% 0.0 mm
10:14 26.1 °C 19.7 °C 1016.1 hPa NE 14.8 km/h 29.8 km/h 68% 0.0 mm
10:19 26.1 °C 19.7 °C 1016.2 hPa NE 15.7 km/h 30.6 km/h 68% 0.0 mm
10:24 26 °C 19.7 °C 1016.2 hPa NE 18 km/h 27.4 km/h 68.3% 0.0 mm
10:29 26.1 °C 19.9 °C 1016.2 hPa NE 17 km/h 24.1 km/h 69% 0.0 mm
10:34 26.1 °C 20.3 °C 1016.3 hPa NE 14 km/h 25.9 km/h 70.6% 0.0 mm
10:39 25.9 °C 20.6 °C 1016.3 hPa ENE 13.7 km/h 25.7 km/h 72.6% 0.0 mm
10:44 25.8 °C 20.7 °C 1016.3 hPa ENE 13 km/h 19.3 km/h 73.4% 0.0 mm
10:49 25.8 °C 20.8 °C 1016.3 hPa ENE 12.4 km/h 20.9 km/h 74% 0.0 mm
10:54 25.7 °C 20.8 °C 1016.2 hPa NE 10.3 km/h 20.9 km/h 74.2% 0.0 mm
10:59 25.7 °C 20.9 °C 1016.2 hPa ENE 10.8 km/h 24.1 km/h 75% 0.0 mm
11:04 25.6 °C 21 °C 1016.5 hPa ENE 11.9 km/h 31.5 km/h 75.7% 0.0 mm
11:09 25.5 °C 21 °C 1016.5 hPa NE 12.2 km/h 32.2 km/h 76.2% 0.0 mm
11:14 25.3 °C 21.1 °C 1016.5 hPa NE 13 km/h 25.7 km/h 77.6% 0.0 mm
11:19 25.2 °C 21.3 °C 1016.5 hPa NE 13.2 km/h 27.8 km/h 79% 0.0 mm
11:24 24.9 °C 21.6 °C 1016.4 hPa NE 13.7 km/h 27.8 km/h 81.6% 0.0 mm
11:29 24.8 °C 21.7 °C 1016.4 hPa NE 13.8 km/h 27.4 km/h 83.1% 0.0 mm
11:34 24.9 °C 21.8 °C 1016.6 hPa NE 14 km/h 30.6 km/h 82.8% 0.0 mm
11:39 24.8 °C 21.3 °C 1016.6 hPa NE 14.9 km/h 30.6 km/h 81% 0.0 mm
11:44 24.6 °C 20.8 °C 1016.6 hPa NE 17.2 km/h 29 km/h 79.4% 0.0 mm
11:49 24.6 °C 20.6 °C 1016.8 hPa NE 17.4 km/h 27.8 km/h 78.4% 0.0 mm
11:54 24.7 °C 20.8 °C 1016.8 hPa NE 18 km/h 27.4 km/h 79% 0.0 mm
11:59 24.9 °C 21 °C 1016.8 hPa NE 17.3 km/h 25.7 km/h 79% 0.0 mm
12:04 25 °C 21.1 °C 1016.8 hPa NE 15.6 km/h 24.1 km/h 79% 0.0 mm
12:09 25 °C 21.3 °C 1016.8 hPa NNE 15.1 km/h 22.5 km/h 79.6% 0.0 mm
12:14 24.9 °C 21.3 °C 1016.8 hPa NNE 13.7 km/h 19.3 km/h 80.8% 0.0 mm
12:19 25 °C 21.5 °C 1016.8 hPa NE 13.3 km/h 24.1 km/h 81% 0.0 mm
12:24 25.2 °C 21.3 °C 1016.5 hPa NE 12.2 km/h 34.3 km/h 78.9% 0.0 mm
12:29 25.8 °C 21 °C 1016.5 hPa NE 13.5 km/h 33.8 km/h 74.9% 0.0 mm
12:34 26.2 °C 21 °C 1016.5 hPa NE 17.2 km/h 34.3 km/h 73% 0.0 mm
12:39 26.4 °C 21.1 °C 1016.4 hPa NE 18 km/h 35.2 km/h 72.5% 0.0 mm
12:44 26.7 °C 21.1 °C 1016.4 hPa ENE 20.1 km/h 35.4 km/h 71.6% 0.0 mm
12:49 26.8 °C 20.9 °C 1016.5 hPa ENE 19.6 km/h 34.3 km/h 70.2% 0.0 mm
12:54 26.6 °C 20.7 °C 1016.5 hPa ENE 18 km/h 33.8 km/h 70% 0.0 mm
12:59 26.7 °C 20.5 °C 1016.5 hPa ENE 17.5 km/h 30.6 km/h 68.9% 0.0 mm
13:04 26.9 °C 20.3 °C 1016.7 hPa NE 16.4 km/h 35.2 km/h 67.4% 0.0 mm
13:09 26.8 °C 20.2 °C 1016.7 hPa NE 17.3 km/h 37.8 km/h 67% 0.0 mm
13:14 26.8 °C 20.1 °C 1016.7 hPa ENE 19.8 km/h 37 km/h 66.6% 0.0 mm
13:19 26.9 °C 20 °C 1016.7 hPa NE 19.8 km/h 33.5 km/h 65.7% 0.0 mm
13:24 26.9 °C 19.8 °C 1016.6 hPa NE 19.8 km/h 35.9 km/h 65% 0.0 mm
13:29 27.2 °C 19.8 °C 1016.6 hPa NE 20.5 km/h 35.4 km/h 64.2% 0.0 mm
13:34 27.3 °C 19.9 °C 1016.6 hPa NE 22.5 km/h 33.8 km/h 64% 0.0 mm
13:39 27.5 °C 19.9 °C 1016.4 hPa NE 21.5 km/h 35.2 km/h 63.6% 0.0 mm
13:44 27.6 °C 19.5 °C 1016.4 hPa NE 18.4 km/h 35.4 km/h 61.1% 0.0 mm
13:49 27.6 °C 19.7 °C 1016.4 hPa ENE 18.3 km/h 33.5 km/h 61.9% 0.0 mm
13:54 27.6 °C 19.6 °C 1016.4 hPa ENE 18 km/h 33.8 km/h 61.6% 0.0 mm
13:59 27.8 °C 19.6 °C 1016.4 hPa ENE 17.3 km/h 32.2 km/h 61.1% 0.0 mm
14:04 28 °C 19.7 °C 1016.4 hPa ENE 15.6 km/h 30.6 km/h 60.6% 0.0 mm
14:09 28.1 °C 19.7 °C 1016.4 hPa ENE 15.2 km/h 27.8 km/h 60.2% 0.0 mm
14:14 28.1 °C 19.4 °C 1016.4 hPa ENE 14 km/h 27.4 km/h 59.5% 0.0 mm
14:19 28.2 °C 19.5 °C 1016.4 hPa NE 14 km/h 30.9 km/h 59.1% 0.0 mm
14:24 28.3 °C 19.2 °C 1016.2 hPa ENE 14 km/h 32.2 km/h 57.8% 0.0 mm
14:29 28.3 °C 18.9 °C 1016.2 hPa ENE 14.6 km/h 32.2 km/h 56.8% 0.0 mm
14:34 28.3 °C 18.9 °C 1016.2 hPa ENE 16.4 km/h 29.6 km/h 56.9% 0.0 mm
14:39 28.2 °C 18.6 °C 1016.2 hPa NE 16.4 km/h 33.3 km/h 56.1% 0.0 mm
14:44 28.2 °C 18.1 °C 1016.2 hPa NE 16.4 km/h 33.8 km/h 54.4% 0.0 mm
14:49 28.1 °C 18.6 °C 1016.2 hPa NE 16.8 km/h 33.8 km/h 56.3% 0.0 mm
14:54 28.2 °C 18.8 °C 1015.9 hPa Este 18 km/h 34.3 km/h 56.5% 0.0 mm
14:59 28.3 °C 18.5 °C 1015.9 hPa ENE 18.1 km/h 33.8 km/h 55.2% 0.0 mm
15:04 28.3 °C 18.5 °C 1015.9 hPa ENE 18.4 km/h 32.2 km/h 55.4% 0.0 mm
15:09 28.6 °C 18.5 °C 1015.9 hPa Este 17.3 km/h 28.2 km/h 54.7% 0.0 mm
15:14 28.4 °C 17.9 °C 1015.9 hPa ENE 14 km/h 31.5 km/h 52.9% 0.0 mm
15:19 28.5 °C 17.7 °C 1015.9 hPa NE 15 km/h 34.3 km/h 52.1% 0.0 mm
15:24 28.6 °C 17.9 °C 1015.8 hPa NE 18 km/h 33.8 km/h 52.3% 0.0 mm
15:29 28.5 °C 17.9 °C 1015.8 hPa NE 17.6 km/h 32.3 km/h 52.6% 0.0 mm
15:34 28.4 °C 18 °C 1015.8 hPa ENE 16.4 km/h 33.8 km/h 53.3% 0.0 mm
15:39 28.6 °C 16.4 °C 1015.6 hPa NE 17 km/h 33.8 km/h 47.8% 0.0 mm
15:44 28.7 °C 17.2 °C 1015.6 hPa ENE 19 km/h 35.2 km/h 50% 0.0 mm
15:49 28.7 °C 17.5 °C 1015.6 hPa ENE 18.8 km/h 35.4 km/h 51% 0.0 mm
15:54 28.7 °C 17.3 °C 1015.2 hPa Este 18.4 km/h 31.7 km/h 50.2% 0.0 mm
15:59 28.8 °C 17.6 °C 1015.2 hPa ENE 17.8 km/h 32.2 km/h 50.9% 0.0 mm
16:04 28.8 °C 17.6 °C 1015.3 hPa ENE 16.4 km/h 37 km/h 50.8% 0.0 mm
16:09 28.8 °C 17.7 °C 1015.3 hPa ENE 16.3 km/h 37 km/h 51.2% 0.0 mm
16:14 28.8 °C 17.7 °C 1015.3 hPa ENE 16.1 km/h 37 km/h 51.2% 0.0 mm
16:19 28.9 °C 17.6 °C 1015.3 hPa ENE 15.8 km/h 25.7 km/h 50.7% 0.0 mm
16:24 28.9 °C 17.7 °C 1015.3 hPa NE 14.8 km/h 29.6 km/h 50.8% 0.0 mm
16:29 28.9 °C 17.7 °C 1015.3 hPa NE 14.8 km/h 29.8 km/h 51% 0.0 mm
16:34 28.7 °C 17.7 °C 1015.3 hPa ENE 14.8 km/h 31.7 km/h 51.3% 0.0 mm
16:39 28.6 °C 17.4 °C 1015.2 hPa NE 15.2 km/h 33.3 km/h 50.8% 0.0 mm
16:44 28.6 °C 18.3 °C 1015.2 hPa ENE 16.4 km/h 33.8 km/h 53.6% 0.0 mm
16:49 28.8 °C 18.3 °C 1015.3 hPa NE 16.2 km/h 26.2 km/h 53% 0.0 mm
16:54 28.9 °C 18.3 °C 1015.3 hPa NE 15.6 km/h 33.5 km/h 53% 0.0 mm
16:59 28.9 °C 18.4 °C 1015.3 hPa NE 15.7 km/h 33.8 km/h 53.2% 0.0 mm
17:04 28.7 °C 18.5 °C 1015.3 hPa ENE 16.1 km/h 38.9 km/h 54% 0.0 mm
17:09 28.7 °C 18.3 °C 1015.1 hPa ENE 16.2 km/h 38.6 km/h 53.5% 0.0 mm
17:14 28.6 °C 18.6 °C 1015.1 hPa ENE 16.4 km/h 27.8 km/h 54.7% 0.0 mm
17:19 28.7 °C 18.7 °C 1015.1 hPa NE 16.4 km/h 33.5 km/h 54.8% 0.0 mm
17:24 28.4 °C 18.9 °C 1014.9 hPa NE 16.4 km/h 33.8 km/h 56.2% 0.0 mm
17:29 28.4 °C 18.8 °C 1014.9 hPa ENE 16.2 km/h 32.2 km/h 56% 0.0 mm
17:34 28.3 °C 19 °C 1014.9 hPa NE 15.6 km/h 27.8 km/h 56.9% 0.0 mm
17:39 28.3 °C 18.9 °C 1014.9 hPa NE 15.8 km/h 29.8 km/h 56.9% 0.0 mm
17:44 28.2 °C 18.6 °C 1014.9 hPa ENE 16.4 km/h 30.6 km/h 56.1% 0.0 mm
17:49 28.1 °C 18.9 °C 1015.0 hPa ENE 16.4 km/h 29.1 km/h 57.4% 0.0 mm
17:54 27.8 °C 18.9 °C 1015.0 hPa ENE 16.4 km/h 31.7 km/h 58.3% 0.0 mm
17:59 27.7 °C 18.6 °C 1015.0 hPa NE 16.2 km/h 32.2 km/h 57.7% 0.0 mm
18:04 27.7 °C 18.9 °C 1015.0 hPa ENE 15.6 km/h 29.6 km/h 58.7% 0.0 mm
18:09 27.8 °C 18.9 °C 1015.0 hPa ENE 15.2 km/h 29 km/h 58.4% 0.0 mm
18:14 27.9 °C 18.7 °C 1015.0 hPa ENE 14 km/h 27.4 km/h 57.2% 0.0 mm
18:19 28.1 °C 18.7 °C 1015.0 hPa ENE 13.9 km/h 28.2 km/h 57% 0.0 mm
18:24 27.9 °C 18.5 °C 1015.0 hPa ENE 13.7 km/h 27.8 km/h 56.8% 0.0 mm
18:29 27.8 °C 18.5 °C 1015.0 hPa NE 14.1 km/h 33.3 km/h 56.9% 0.0 mm
18:34 27.6 °C 18.6 °C 1015.2 hPa NE 15.6 km/h 33.8 km/h 58.1% 0.0 mm
18:39 27.4 °C 18.7 °C 1015.2 hPa NE 15.8 km/h 25.9 km/h 59.1% 0.0 mm
18:44 27.5 °C 19 °C 1015.2 hPa ENE 16.4 km/h 27 km/h 60% 0.0 mm
18:49 27.5 °C 19 °C 1015.2 hPa NE 16.3 km/h 27.8 km/h 60% 0.0 mm
18:54 27.6 °C 19 °C 1015.2 hPa NE 16.1 km/h 27.4 km/h 59.5% 0.0 mm
18:59 27.6 °C 19.1 °C 1015.2 hPa NE 15.5 km/h 25.9 km/h 60% 0.0 mm
19:04 27.6 °C 18.9 °C 1015.2 hPa ENE 14 km/h 29.6 km/h 59.4% 0.0 mm
19:09 27.5 °C 19 °C 1015.2 hPa ENE 14 km/h 29 km/h 60% 0.0 mm
19:14 27.6 °C 18.9 °C 1015.2 hPa ENE 14 km/h 25.9 km/h 59.2% 0.0 mm
19:19 27.4 °C 18.8 °C 1015.2 hPa ENE 14 km/h 25.7 km/h 59.6% 0.0 mm
19:24 27.3 °C 18.8 °C 1015.2 hPa ENE 14 km/h 24.1 km/h 59.9% 0.0 mm
19:29 27.2 °C 18.6 °C 1015.2 hPa ENE 13.9 km/h 24.1 km/h 59.5% 0.0 mm
19:34 27.2 °C 18.8 °C 1015.3 hPa NE 13.7 km/h 27.8 km/h 60.4% 0.0 mm
19:39 27.1 °C 18.9 °C 1015.3 hPa NE 13.5 km/h 27.4 km/h 61% 0.0 mm
19:44 27.1 °C 18.9 °C 1015.3 hPa ENE 13 km/h 24.5 km/h 61% 0.0 mm
19:49 27.1 °C 18.9 °C 1015.3 hPa ENE 12.3 km/h 24.1 km/h 61% 0.0 mm
19:54 27.2 °C 19 °C 1015.3 hPa ENE 10.3 km/h 22.5 km/h 61% 0.0 mm
19:59 27.2 °C 19.2 °C 1015.3 hPa ENE 10.1 km/h 20.9 km/h 61.8% 0.0 mm
20:04 27.2 °C 19.1 °C 1015.5 hPa ENE 9.5 km/h 20.9 km/h 61.3% 0.0 mm
20:09 27.1 °C 18.9 °C 1015.5 hPa ENE 9.6 km/h 20.9 km/h 60.9% 0.0 mm
20:14 26.9 °C 18.7 °C 1015.5 hPa NE 10 km/h 20.9 km/h 61% 0.0 mm
20:19 26.9 °C 18.9 °C 1015.5 hPa ENE 10 km/h 19.8 km/h 61.7% 0.0 mm
20:24 26.8 °C 18.9 °C 1015.5 hPa NE 10 km/h 20.9 km/h 62.2% 0.0 mm
20:29 26.6 °C 19 °C 1015.5 hPa NE 10.1 km/h 20.9 km/h 63% 0.0 mm
20:34 26.6 °C 19.1 °C 1015.7 hPa NE 10.3 km/h 20.9 km/h 63.4% 0.0 mm
20:39 26.5 °C 19.2 °C 1015.7 hPa NE 10.1 km/h 19.3 km/h 64% 0.0 mm
20:44 26.4 °C 19.2 °C 1015.7 hPa NE 9.5 km/h 19.8 km/h 64.8% 0.0 mm
20:49 26.3 °C 18.9 °C 1015.9 hPa NE 10.2 km/h 22.5 km/h 64.2% 0.0 mm
20:54 26.2 °C 18.8 °C 1015.9 hPa NE 12.2 km/h 22.5 km/h 64% 0.0 mm
20:59 26.2 °C 18.8 °C 1015.9 hPa NE 11.7 km/h 20.9 km/h 64% 0.0 mm
21:04 26.1 °C 19 °C 1016.0 hPa NE 10.3 km/h 18 km/h 65.1% 0.0 mm
21:09 25.9 °C 19.2 °C 1016.0 hPa NE 10.2 km/h 19.3 km/h 66.5% 0.0 mm
21:14 25.8 °C 19.3 °C 1016.0 hPa NE 10 km/h 19.3 km/h 67.4% 0.0 mm
21:19 25.8 °C 19.4 °C 1016.3 hPa NE 10.1 km/h 19.3 km/h 68% 0.0 mm
21:24 25.7 °C 19.4 °C 1016.3 hPa NE 10.3 km/h 19.3 km/h 68.2% 0.0 mm
21:29 25.6 °C 19.5 °C 1016.3 hPa NE 10.2 km/h 17.7 km/h 69% 0.0 mm
21:34 25.6 °C 19.5 °C 1016.5 hPa NE 10 km/h 16.7 km/h 69% 0.0 mm
21:39 25.5 °C 19.4 °C 1016.5 hPa ENE 9.9 km/h 16.1 km/h 69% 0.0 mm
21:44 25.4 °C 19.3 °C 1016.5 hPa NE 9.5 km/h 13.7 km/h 69% 0.0 mm
21:49 25.4 °C 19.5 °C 1016.7 hPa NE 9.2 km/h 14.8 km/h 69.9% 0.0 mm
21:54 25.3 °C 19.5 °C 1016.7 hPa NE 8.4 km/h 16.7 km/h 70% 0.0 mm
21:59 25.3 °C 19.4 °C 1016.7 hPa NE 9.1 km/h 15.6 km/h 70% 0.0 mm
22:04 25.2 °C 19.3 °C 1016.9 hPa NE 10 km/h 16.1 km/h 70% 0.0 mm
22:09 25.2 °C 19.5 °C 1016.9 hPa NE 9.9 km/h 14.8 km/h 70.8% 0.0 mm
22:14 25.2 °C 19.6 °C 1016.9 hPa NE 9.5 km/h 14.5 km/h 71% 0.0 mm
22:19 25.2 °C 19.6 °C 1017.1 hPa NE 9 km/h 13 km/h 71% 0.0 mm
22:24 25.2 °C 19.6 °C 1017.1 hPa NE 7.6 km/h 12.9 km/h 71% 0.0 mm
22:29 25.2 °C 19.6 °C 1017.1 hPa ENE 7.3 km/h 11.9 km/h 71% 0.0 mm
22:34 25.2 °C 19.5 °C 1017.2 hPa NE 6.5 km/h 11.9 km/h 71% 0.0 mm
22:39 25.1 °C 19.4 °C 1017.2 hPa NE 6.5 km/h 11.3 km/h 71% 0.0 mm
22:44 25.1 °C 19.7 °C 1017.2 hPa NE 6.5 km/h 10 km/h 71.9% 0.0 mm
22:49 25.1 °C 19.7 °C 1017.3 hPa ENE 6.1 km/h 9.7 km/h 72% 0.0 mm
22:54 25.1 °C 19.7 °C 1017.3 hPa NE 5 km/h 8.4 km/h 72% 0.0 mm
22:59 25 °C 19.7 °C 1017.3 hPa NE 4.9 km/h 9.3 km/h 72% 0.0 mm
23:04 25 °C 19.6 °C 1017.5 hPa NE 4.6 km/h 9.7 km/h 72% 0.0 mm
23:09 24.9 °C 19.6 °C 1017.5 hPa NE 5 km/h 11.1 km/h 72.2% 0.0 mm
23:14 24.9 °C 19.7 °C 1017.5 hPa ENE 5.8 km/h 11.3 km/h 73% 0.0 mm
23:19 24.9 °C 19.7 °C 1017.5 hPa ENE 5.8 km/h 9.3 km/h 73% 0.0 mm
23:24 24.8 °C 19.6 °C 1017.5 hPa ENE 5.8 km/h 9.7 km/h 73% 0.0 mm
23:29 24.8 °C 19.6 °C 1017.5 hPa NE 5.6 km/h 8.4 km/h 73% 0.0 mm
23:34 24.8 °C 19.6 °C 1017.5 hPa NE 5 km/h 8.4 km/h 73% 0.0 mm
23:39 24.8 °C 19.6 °C 1017.5 hPa NE 5 km/h 9.5 km/h 73% 0.0 mm
23:44 24.8 °C 19.7 °C 1017.5 hPa ENE 5 km/h 9.7 km/h 73% 0.0 mm
23:49 24.8 °C 19.6 °C 1017.5 hPa NE 4.9 km/h 8 km/h 73% 0.0 mm
23:54 24.8 °C 19.6 °C 1017.5 hPa NE 4.7 km/h 8 km/h 73% 0.0 mm
23:59 24.8 °C 19.6 °C 1017.5 hPa ENE 4.2 km/h 7.4 km/h 73% 0.0 mm
Murcia-Puente Tocinos, España
Compliments of Weather Underground - 3 mb

La estación de MeteoMurcia.com, publica sus datos en los siguientes proyectos:

Weather Underground PWS IMURCIAP2 Meteoclimatic www.awekas.at

W3Counter
Web Analytics